Time;durP1;ratioP1;P1;durP2;ratioP2;P2;SDS_P1;SDS_P2;PMS_P1;PMS_P2;Temp;Humidity;BMP_temperature;BMP_pressure;BME280_temperature;BME280_humidity;BME280_pressure;Samples;Min_cycle;Max_cycle;Signal;HPM_P1;HPM_P2
2021/01/20 00:01:11;;;;;;;188.50;76.33;;;;;;;-12.92;56.20;100226.80;1800817;78;21473;-66
2021/01/20 00:03:39;;;;;;;134.33;58.87;;;;;;;-13.07;56.39;100231.10;1794192;79;21337;-67
2021/01/20 00:06:06;;;;;;;115.30;52.30;;;;;;;-13.23;56.61;100232.91;1792014;79;22062;-65
2021/01/20 00:08:34;;;;;;;102.00;49.60;;;;;;;-13.37;56.83;100239.32;1795294;79;21404;-66
2021/01/20 00:11:01;;;;;;;112.80;50.83;;;;;;;-13.50;57.14;100242.22;1793056;79;21858;-63
2021/01/20 00:13:29;;;;;;;74.23;40.03;;;;;;;-13.60;57.48;100245.77;1765104;81;21383;-64
2021/01/20 00:15:56;;;;;;;106.33;46.63;;;;;;;-13.74;57.69;100238.77;1764967;81;21851;-66
2021/01/20 00:18:24;;;;;;;104.40;47.70;;;;;;;-13.92;57.80;100240.23;1765049;81;21226;-65
2021/01/20 00:20:51;;;;;;;100.30;47.10;;;;;;;-14.13;58.28;100235.73;1765030;81;21084;-64
2021/01/20 00:23:18;;;;;;;99.70;44.10;;;;;;;-14.25;58.70;100239.81;1765211;81;21379;-64
2021/01/20 00:25:46;;;;;;;77.90;38.20;;;;;;;-14.30;59.05;100241.80;1785700;79;22079;-61
2021/01/20 00:28:14;;;;;;;59.13;32.50;;;;;;;-14.35;59.34;100239.08;1811258;79;21125;-65
2021/01/20 00:30:41;;;;;;;78.67;35.33;;;;;;;-14.46;59.66;100235.78;1809324;79;21456;-67
2021/01/20 00:33:08;;;;;;;84.60;40.00;;;;;;;-14.57;59.96;100243.69;1797090;79;21420;-66
2021/01/20 00:35:38;;;;;;;74.63;38.80;;;;;;;-14.67;60.35;100249.77;1777891;79;21207;-66
2021/01/20 00:38:06;;;;;;;82.17;38.83;;;;;;;-14.65;60.66;100245.38;1800646;79;22320;-67
2021/01/20 00:40:33;;;;;;;74.70;38.17;;;;;;;-14.62;60.47;100234.44;1796245;79;21314;-65
2021/01/20 00:43:01;;;;;;;71.33;35.63;;;;;;;-14.63;60.36;100235.83;1792348;80;21393;-65
2021/01/20 00:45:30;;;;;;;78.60;38.30;;;;;;;-14.58;60.38;100234.30;1791937;79;21274;-64
2021/01/20 00:47:58;;;;;;;67.07;34.63;;;;;;;-14.37;60.42;100224.13;1789520;80;21350;-65
2021/01/20 00:50:26;;;;;;;62.57;29.03;;;;;;;-14.25;59.99;100237.23;1797459;79;21231;-64
2021/01/20 00:52:54;;;;;;;75.73;34.87;;;;;;;-14.25;59.56;100233.81;1810913;79;21129;-64
2021/01/20 00:55:22;;;;;;;66.83;33.27;;;;;;;-14.41;59.10;100229.92;1806839;79;21269;-64
2021/01/20 00:57:51;;;;;;;69.03;33.87;;;;;;;-14.67;59.10;100235.12;1760882;80;21893;-65
2021/01/20 01:00:21;;;;;;;74.20;37.27;;;;;;;-14.79;59.38;100237.05;1790942;78;21338;-65
2021/01/20 01:02:51;;;;;;;58.67;32.13;;;;;;;-14.83;59.33;100234.25;1767665;79;21350;-65
2021/01/20 01:05:19;;;;;;;72.23;38.60;;;;;;;-14.86;59.36;100233.54;1770877;79;21483;-63
2021/01/20 01:07:48;;;;;;;62.07;31.57;;;;;;;-14.93;59.49;100230.91;1813042;79;21326;-64
2021/01/20 01:10:17;;;;;;;87.23;43.80;;;;;;;-14.95;59.65;100234.84;1812433;79;21173;-66
2021/01/20 01:12:56;;;;;;;85.93;42.30;;;;;;;-15.02;59.76;100237.81;1792999;79;21387;-67
2021/01/20 01:15:24;;;;;;;81.97;42.63;;;;;;;-14.98;60.08;100229.00;1802397;79;23087;-66
2021/01/20 01:17:51;;;;;;;92.63;42.63;;;;;;;-14.97;60.01;100226.81;1800410;79;22143;-66
2021/01/20 01:20:19;;;;;;;61.20;30.33;;;;;;;-14.98;60.12;100232.42;1800397;79;21400;-63
2021/01/20 01:22:48;;;;;;;71.63;34.27;;;;;;;-14.96;60.15;100229.30;1799294;79;21298;-62
2021/01/20 01:25:16;;;;;;;59.60;28.32;;;;;;;-15.08;60.16;100223.02;1793268;79;21745;-65
2021/01/20 01:27:46;;;;;;;96.17;46.23;;;;;;;-15.26;60.28;100223.09;1800027;79;21446;-66
2021/01/20 01:30:16;;;;;;;113.57;50.85;;;;;;;-15.49;60.50;100221.62;1800075;79;21425;-66
2021/01/20 01:32:43;;;;;;;124.72;61.35;;;;;;;-15.61;60.84;100226.09;1799480;79;21615;-67
2021/01/20 01:35:13;;;;;;;142.60;57.48;;;;;;;-15.60;61.16;100231.17;1773248;79;21236;-64
2021/01/20 01:37:42;;;;;;;75.55;38.58;;;;;;;-15.55;61.31;100236.95;1778647;79;21141;-63
2021/01/20 01:40:21;;;;;;;63.28;29.80;;;;;;;-15.55;61.47;100245.97;1798888;79;21397;-63
2021/01/20 01:42:59;;;;;;;57.53;31.73;;;;;;;-15.54;61.46;100245.07;1849417;76;22039;-64
2021/01/20 01:45:27;;;;;;;83.22;38.25;;;;;;;-15.64;61.46;100236.55;1819637;78;21586;-64
2021/01/20 01:47:54;;;;;;;71.65;36.20;;;;;;;-15.67;61.33;100239.25;1819577;78;21347;-64
2021/01/20 01:50:23;;;;;;;53.80;28.98;;;;;;;-15.66;61.32;100244.34;1798450;78;21053;-64
2021/01/20 01:52:50;;;;;;;90.80;43.33;;;;;;;-15.66;61.19;100249.50;1787503;78;21152;-63
2021/01/20 01:55:37;;;;;;;75.40;35.63;;;;;;;-15.74;61.27;100241.30;1812282;78;21565;-64
2021/01/20 01:58:06;;;;;;;64.82;33.25;;;;;;;-15.78;61.35;100242.34;1812250;78;21022;-65
2021/01/20 02:00:34;;;;;;;66.57;33.08;;;;;;;-15.86;61.41;100244.88;1790536;78;21610;-65
2021/01/20 02:03:04;;;;;;;69.80;35.70;;;;;;;-15.96;61.61;100258.17;1794027;78;21116;-65
2021/01/20 02:05:33;;;;;;;77.72;37.38;;;;;;;-16.03;61.91;100257.24;1819654;78;20998;-63
2021/01/20 02:08:03;;;;;;;107.55;44.83;;;;;;;-16.04;62.04;100260.27;1785573;78;21184;-64
2021/01/20 02:10:33;;;;;;;;;;;;;;;-16.10;62.24;100261.83;1819533;78;21124;-64
2021/01/20 02:13:26;;;;;;;81.10;38.48;;;;;;;-16.12;62.29;100257.66;1817289;78;21578;-62
2021/01/20 02:16:19;;;;;;;108.27;51.73;;;;;;;-16.14;62.40;100254.30;1847085;76;22737;-63
2021/01/20 02:18:51;;;;;;;109.48;51.85;;;;;;;-16.14;62.62;100256.88;1812255;78;21575;-63
2021/01/20 02:21:44;;;;;;;165.43;73.67;;;;;;;-16.03;62.71;100253.38;1809482;79;21191;-70
2021/01/20 02:24:44;;;;;;;174.05;72.78;;;;;;;-16.00;62.70;100253.23;1814415;79;21059;-66
2021/01/20 02:27:22;;;;;;;120.75;51.58;;;;;;;-15.99;62.67;100253.63;1812118;79;21292;-68
2021/01/20 02:30:06;;;;;;;167.82;66.35;;;;;;;-16.00;62.64;100250.20;1812752;79;21035;-65
2021/01/20 02:32:54;;;;;;;210.08;80.67;;;;;;;-16.00;62.65;100248.92;1780177;80;21144;-67
2021/01/20 02:35:33;;;;;;;147.22;64.27;;;;;;;-15.99;62.71;100251.05;1760362;81;21589;-69
2021/01/20 02:38:02;;;;;;;177.60;70.12;;;;;;;-15.98;62.72;100252.72;1761417;81;20983;-66
2021/01/20 02:40:31;;;;;;;126.50;52.50;;;;;;;-16.01;62.81;100260.12;1742023;80;21151;-66
2021/01/20 02:43:25;;;;;;;165.77;69.40;;;;;;;-16.06;62.93;100250.48;1809633;79;21840;-68
2021/01/20 02:46:01;;;;;;;182.45;69.72;;;;;;;-16.10;63.08;100251.97;1743959;79;21157;-65
2021/01/20 02:48:29;;;;;;;235.13;91.12;;;;;;;-16.18;63.14;100254.91;1798146;79;21414;-68
2021/01/20 02:50:59;;;;;;;233.02;91.20;;;;;;;-16.24;63.37;100258.19;1816967;79;20984;-66
2021/01/20 02:53:27;;;;;;;247.02;104.78;;;;;;;-16.26;63.57;100256.98;1787909;79;21098;-68
2021/01/20 02:55:58;;;;;;;220.00;90.85;;;;;;;-16.24;63.80;100256.91;1816861;79;21169;-65
2021/01/20 02:58:32;;;;;;;241.30;99.75;;;;;;;-16.18;63.89;100257.92;1805646;79;21161;-73
2021/01/20 03:01:18;;;;;;;241.02;99.15;;;;;;;-16.09;63.96;100255.77;1783918;80;21607;-65
2021/01/20 03:03:46;;;;;;;286.48;115.15;;;;;;;-16.01;63.93;100252.39;1775216;80;21060;-65
2021/01/20 03:06:16;;;;;;;295.63;127.42;;;;;;;-15.99;63.93;100255.75;1704992;81;21048;-65
2021/01/20 03:08:44;;;;;;;268.70;114.12;;;;;;;-15.86;64.10;100253.89;1734120;80;21143;-65
2021/01/20 03:11:11;;;;;;;308.77;128.95;;;;;;;-15.78;63.97;100260.83;1767480;80;21097;-66
2021/01/20 03:13:40;;;;;;;340.65;142.47;;;;;;;-15.77;63.98;100258.61;1784449;80;21779;-66
2021/01/20 03:16:07;;;;;;;339.70;141.40;;;;;;;-15.75;64.06;100258.10;1775921;80;21200;-67
2021/01/20 03:18:35;;;;;;;350.10;143.13;;;;;;;-15.68;64.19;100256.93;1787781;80;21010;-66
2021/01/20 03:21:04;;;;;;;325.95;146.10;;;;;;;-15.61;64.11;100263.45;1785679;80;21594;-65
2021/01/20 03:23:33;;;;;;;347.17;142.25;;;;;;;-15.55;64.04;100258.86;1771109;80;21178;-65
2021/01/20 03:26:01;;;;;;;315.23;138.40;;;;;;;-15.50;63.88;100259.90;1738168;81;21265;-64
2021/01/20 03:28:28;;;;;;;366.27;140.55;;;;;;;-15.48;63.78;100265.80;1738287;82;21216;-67
2021/01/20 03:30:57;;;;;;;375.90;147.55;;;;;;;-15.47;63.75;100267.48;1741196;80;21102;-65
2021/01/20 03:33:24;;;;;;;251.88;101.33;;;;;;;-15.30;64.18;100271.40;1755205;80;21137;-65
2021/01/20 03:35:51;;;;;;;287.05;117.53;;;;;;;-14.95;64.52;100264.51;1756206;81;21177;-65
2021/01/20 03:38:19;;;;;;;347.77;139.85;;;;;;;-14.78;64.29;100267.11;1756232;81;21214;-66
2021/01/20 03:40:46;;;;;;;347.58;134.40;;;;;;;-14.80;63.76;100273.24;1754901;81;21201;-65
2021/01/20 03:43:14;;;;;;;412.12;163.80;;;;;;;-14.92;63.45;100268.70;1741582;80;21169;-67
2021/01/20 03:45:42;;;;;;;341.80;137.72;;;;;;;-15.02;63.45;100270.89;1766333;80;21305;-65
2021/01/20 03:48:10;;;;;;;364.93;146.25;;;;;;;-14.96;63.73;100270.57;1787341;80;21156;-65
2021/01/20 03:50:37;;;;;;;396.63;159.15;;;;;;;-14.98;63.46;100271.57;1787256;80;21224;-72
2021/01/20 03:53:05;;;;;;;379.10;150.30;;;;;;;-15.00;63.46;100269.05;1763568;80;21169;-66
2021/01/20 03:55:32;;;;;;;317.75;136.80;;;;;;;-14.95;63.40;100267.09;1756146;81;20979;-65
2021/01/20 03:57:59;;;;;;;307.18;138.60;;;;;;;-14.95;63.06;100267.09;1756196;81;21555;-66
2021/01/20 04:00:27;;;;;;;339.85;143.00;;;;;;;-14.91;63.10;100267.80;1761380;80;21140;-64
2021/01/20 04:02:55;;;;;;;339.72;142.45;;;;;;;-14.85;62.77;100264.44;1780220;80;21275;-64
2021/01/20 04:05:24;;;;;;;316.27;136.32;;;;;;;-14.80;62.58;100266.79;1755644;80;21610;-65
2021/01/20 04:07:52;;;;;;;327.98;138.22;;;;;;;-14.72;62.47;100262.91;1756137;81;21680;-64
2021/01/20 04:10:20;;;;;;;291.35;129.05;;;;;;;-14.66;62.17;100256.16;1756048;81;21455;-66
2021/01/20 04:12:47;;;;;;;294.67;128.40;;;;;;;-14.56;62.20;100251.81;1780461;80;21101;-65
2021/01/20 04:15:15;;;;;;;268.00;119.10;;;;;;;-14.48;62.13;100263.90;1783809;80;21204;-67
2021/01/20 04:17:42;;;;;;;249.13;108.47;;;;;;;-14.52;61.90;100257.20;1778380;80;22284;-63
2021/01/20 04:20:14;;;;;;;203.20;92.50;;;;;;;-14.47;62.19;100262.96;1767893;80;21357;-64
2021/01/20 04:22:42;;;;;;;167.03;70.30;;;;;;;-14.31;62.63;100267.24;1781303;80;21592;-64
2021/01/20 04:25:11;;;;;;;54.35;24.80;;;;;;;-14.22;63.27;100263.34;1778617;80;21142;-61
2021/01/20 04:27:39;;;;;;;155.33;64.63;;;;;;;-14.34;64.31;100257.08;1787395;80;21362;-63
2021/01/20 04:30:09;;;;;;;147.77;63.10;;;;;;;-14.53;65.16;100253.81;1787051;80;21518;-66
2021/01/20 04:32:36;;;;;;;91.93;40.80;;;;;;;-14.51;65.68;100251.96;1779106;80;21827;-65
2021/01/20 04:35:06;;;;;;;192.95;84.22;;;;;;;-14.64;65.45;100251.77;1751302;81;21588;-65
2021/01/20 04:37:33;;;;;;;62.48;34.53;;;;;;;-14.80;65.47;100253.44;1738329;81;21127;-66
2021/01/20 04:40:01;;;;;;;129.63;60.40;;;;;;;-15.05;66.19;100255.55;1740733;82;21209;-65
2021/01/20 04:42:29;;;;;;;115.37;47.35;;;;;;;-15.28;66.33;100252.80;1729648;82;21037;-65
2021/01/20 04:44:57;;;;;;;78.45;34.58;;;;;;;-15.32;66.68;100248.70;1755728;81;21112;-64
2021/01/20 04:47:24;;;;;;;117.47;52.88;;;;;;;-15.38;66.97;100254.59;1780398;80;21904;-65
2021/01/20 04:49:52;;;;;;;93.35;46.33;;;;;;;-15.38;67.30;100252.02;1741246;80;21140;-65
2021/01/20 04:52:20;;;;;;;99.47;41.60;;;;;;;-15.40;67.38;100257.72;1779798;78;21416;-64
2021/01/20 04:54:47;;;;;;;129.80;57.05;;;;;;;-15.44;67.59;100252.33;1756345;80;21002;-66
2021/01/20 04:57:14;;;;;;;136.82;62.67;;;;;;;-15.48;67.76;100254.20;1731086;81;21602;-64
2021/01/20 04:59:43;;;;;;;62.93;29.02;;;;;;;-15.51;68.00;100256.52;1756846;81;21134;-64
2021/01/20 05:02:10;;;;;;;99.83;42.10;;;;;;;-15.54;68.92;100262.27;1768078;80;21582;-65
2021/01/20 05:04:41;;;;;;;120.97;52.03;;;;;;;-15.62;68.71;100260.04;1760808;80;21247;-67
2021/01/20 05:07:10;;;;;;;122.47;52.23;;;;;;;-15.66;68.94;100262.38;1784206;80;20997;-64
2021/01/20 05:09:37;;;;;;;89.00;39.27;;;;;;;-15.60;69.20;100258.69;1786829;80;21670;-66
2021/01/20 05:12:06;;;;;;;57.58;27.30;;;;;;;-15.44;69.45;100258.30;1786847;80;21622;-66
2021/01/20 05:14:39;;;;;;;90.83;44.00;;;;;;;-15.41;69.65;100260.75;1787136;80;21558;-66
2021/01/20 05:17:07;;;;;;;108.85;49.35;;;;;;;-15.40;69.58;100263.72;1784179;80;21181;-67
2021/01/20 05:19:39;;;;;;;105.87;46.08;;;;;;;-15.42;69.70;100267.26;1784212;80;21113;-67
2021/01/20 05:22:08;;;;;;;101.58;44.93;;;;;;;-15.45;70.02;100275.15;1784192;80;21133;-68
2021/01/20 05:24:36;;;;;;;118.25;48.68;;;;;;;-15.47;69.96;100276.95;1768754;80;21153;-66
2021/01/20 05:27:04;;;;;;;71.65;34.25;;;;;;;-15.50;70.06;100277.94;1753147;81;21595;-65
2021/01/20 05:29:32;;;;;;;56.90;31.27;;;;;;;-15.42;70.43;100282.27;1750154;80;22267;-68
2021/01/20 05:32:19;;;;;;;84.52;38.65;;;;;;;-15.68;70.89;100283.98;1734740;82;21156;-66
2021/01/20 05:35:03;;;;;;;44.42;22.10;;;;;;;-15.87;71.37;100285.25;1775738;80;21157;-67
2021/01/20 05:37:30;;;;;;;53.58;27.37;;;;;;;-16.02;72.18;100293.24;1783111;80;21117;-66
2021/01/20 05:40:11;;;;;;;92.37;46.35;;;;;;;-16.04;72.31;100294.20;1784053;80;21614;-65
2021/01/20 05:42:53;;;;;;;46.88;26.07;;;;;;;-16.07;72.23;100294.34;1784404;80;21183;-67
2021/01/20 05:45:23;;;;;;;;;;;;;;;-16.17;73.37;100300.80;1774501;80;21614;-67
2021/01/20 05:48:09;;;;;;;82.25;32.93;;;;;;;-16.24;73.16;100300.67;1783177;80;20131;-66
2021/01/20 05:50:44;;;;;;;59.83;31.42;;;;;;;-16.19;73.59;100299.56;1784065;80;21118;-66
2021/01/20 05:53:12;;;;;;;51.70;25.43;;;;;;;-16.13;73.64;100299.75;1765666;80;21563;-68
2021/01/20 05:55:39;;;;;;;75.45;34.25;;;;;;;-16.02;73.71;100296.27;1753139;81;21256;-67
2021/01/20 05:58:06;;;;;;;84.70;37.83;;;;;;;-15.90;73.70;100296.16;1752998;81;21124;-66
2021/01/20 06:00:34;;;;;;;71.22;33.25;;;;;;;-15.78;73.54;100296.45;1759233;80;21170;-66
2021/01/20 06:03:02;;;;;;;89.95;43.08;;;;;;;-15.74;73.32;100299.27;1776808;80;21125;-65
2021/01/20 06:05:30;;;;;;;87.90;41.73;;;;;;;-15.69;73.30;100303.77;1753042;81;21155;-65
2021/01/20 06:07:58;;;;;;;66.07;29.95;;;;;;;-15.57;73.33;100300.61;1753066;81;21199;-64
2021/01/20 06:10:25;;;;;;;79.00;35.33;;;;;;;-15.36;73.37;100305.65;1753057;81;21181;-65
2021/01/20 06:12:53;;;;;;;96.53;40.00;;;;;;;-15.29;73.01;100301.86;1753502;80;21180;-66
2021/01/20 06:15:22;;;;;;;75.95;40.05;;;;;;;-15.27;72.87;100297.48;1752671;81;21667;-65
2021/01/20 06:17:51;;;;;;;57.70;30.40;;;;;;;-15.24;72.81;100302.48;1748863;81;21599;-66
2021/01/20 06:20:23;;;;;;;56.95;26.95;;;;;;;-15.29;72.54;100305.73;1765044;80;21187;-64
2021/01/20 06:22:51;;;;;;;96.25;41.18;;;;;;;-15.33;72.68;100311.48;1752592;80;21221;-63
2021/01/20 06:25:32;;;;;;;88.82;42.90;;;;;;;-15.32;72.67;100318.32;1748861;82;21224;-64
2021/01/20 06:28:08;;;;;;;54.58;27.20;;;;;;;-15.34;72.37;100311.10;1776181;80;21161;-66
2021/01/20 06:30:45;;;;;;;56.73;24.37;;;;;;;-15.52;72.15;100321.02;1780958;80;21575;-63
2021/01/20 06:33:15;;;;;;;73.00;33.42;;;;;;;-15.63;72.25;100329.72;1770966;80;21185;-63
2021/01/20 06:35:49;;;;;;;57.30;32.80;;;;;;;-15.90;72.55;100321.46;1748951;82;22229;-64
2021/01/20 06:38:36;;;;;;;64.55;30.80;;;;;;;-16.18;73.81;100326.16;1751310;80;21153;-67
2021/01/20 06:41:10;;;;;;;87.97;37.35;;;;;;;-16.16;73.81;100326.94;1757483;80;21038;-65
2021/01/20 06:43:46;;;;;;;91.35;39.42;;;;;;;-16.18;74.24;100318.43;1755415;80;21192;-66
2021/01/20 06:46:25;;;;;;;34.03;15.75;;;;;;;-16.13;74.38;100325.06;1755663;80;21209;-66
2021/01/20 06:49:01;;;;;;;75.60;36.35;;;;;;;-16.05;74.81;100326.00;1748689;82;21022;-63
2021/01/20 06:51:29;;;;;;;56.75;29.25;;;;;;;-16.02;74.66;100321.57;1748817;81;21153;-66
2021/01/20 06:54:14;;;;;;;64.67;35.10;;;;;;;-15.97;74.83;100337.62;1748653;82;21133;-65
2021/01/20 06:56:48;;;;;;;71.33;32.88;;;;;;;-15.96;74.81;100325.14;1748672;82;21106;-64
2021/01/20 06:59:24;;;;;;;43.25;21.60;;;;;;;-16.02;75.09;100316.87;1748963;80;22245;-65
2021/01/20 07:02:11;;;;;;;66.75;33.08;;;;;;;-16.15;75.49;100322.14;1757416;80;21165;-65
2021/01/20 07:04:51;;;;;;;29.45;19.23;;;;;;;-16.15;75.51;100318.28;1776899;80;21595;-63
2021/01/20 07:07:49;;;;;;;70.22;35.35;;;;;;;-16.11;75.64;100319.85;1779718;80;21559;-65
2021/01/20 07:10:18;;;;;;;45.90;25.25;;;;;;;-16.07;75.58;100323.52;1761576;80;21186;-65
2021/01/20 07:13:13;;;;;;;73.95;37.08;;;;;;;-16.00;75.85;100332.63;1779924;80;21193;-66
2021/01/20 07:15:45;;;;;;;70.40;36.13;;;;;;;-15.92;75.83;100331.02;1780060;80;21014;-66
2021/01/20 07:18:15;;;;;;;70.50;36.83;;;;;;;-15.89;75.53;100334.73;1779626;80;21129;-65
2021/01/20 07:20:45;;;;;;;90.05;40.65;;;;;;;-15.89;75.61;100338.59;1770085;80;21153;-65
2021/01/20 07:23:13;;;;;;;52.35;33.55;;;;;;;-15.76;75.63;100332.44;1748908;81;21153;-66
2021/01/20 07:25:40;;;;;;;56.05;29.48;;;;;;;-15.67;75.32;100342.33;1748919;82;21622;-65
2021/01/20 07:28:07;;;;;;;63.28;36.48;;;;;;;-15.65;75.19;100343.11;1748801;81;21149;-65
2021/01/20 07:30:35;;;;;;;44.05;22.50;;;;;;;-15.74;75.35;100343.52;1751954;80;21087;-65
2021/01/20 07:33:17;;;;;;;45.73;27.25;;;;;;;-15.70;75.46;100351.05;1766680;80;21189;-66
2021/01/20 07:35:46;;;;;;;56.53;29.82;;;;;;;-15.62;75.63;100358.42;1749191;82;21161;-64
2021/01/20 07:38:14;;;;;;;71.65;33.98;;;;;;;-15.56;75.73;100354.28;1749061;80;22152;-65
2021/01/20 07:40:44;;;;;;;83.27;34.80;;;;;;;-15.47;75.65;100360.28;1750889;80;21157;-65
2021/01/20 07:43:23;;;;;;;48.23;31.02;;;;;;;-15.38;75.69;100358.56;1748875;81;21227;-67
2021/01/20 07:45:52;;;;;;;37.60;22.30;;;;;;;-15.36;75.65;100364.50;1768377;80;21126;-64
2021/01/20 07:48:30;;;;;;;79.35;33.30;;;;;;;-15.38;75.86;100357.27;1778938;80;21586;-65
2021/01/20 07:50:57;;;;;;;61.80;30.92;;;;;;;-15.35;75.95;100362.31;1779818;80;21347;-65
2021/01/20 07:53:25;;;;;;;72.92;30.27;;;;;;;-15.31;75.85;100362.55;1779790;80;21196;-67
2021/01/20 07:55:55;;;;;;;67.05;34.85;;;;;;;-15.20;75.86;100362.86;1779613;79;21134;-66
2021/01/20 07:58:31;;;;;;;61.80;29.63;;;;;;;-15.14;75.74;100366.91;1769588;80;21163;-65
2021/01/20 08:00:58;;;;;;;64.47;29.12;;;;;;;-15.11;75.66;100372.78;1761574;80;21591;-66
2021/01/20 08:03:35;;;;;;;91.60;44.08;;;;;;;-15.09;75.66;100374.81;1756355;80;22079;-67
2021/01/20 08:06:07;;;;;;;45.90;28.57;;;;;;;-15.05;75.64;100380.66;1740497;81;21006;-66
2021/01/20 08:08:33;;;;;;;91.12;39.75;;;;;;;-15.02;75.71;100384.86;1747981;80;21590;-68
2021/01/20 08:11:02;;;;;;;50.35;28.85;;;;;;;-15.02;75.67;100381.83;1748851;82;21006;-69
2021/01/20 08:13:31;;;;;;;49.40;28.90;;;;;;;-14.96;75.78;100381.52;1748929;82;21582;-66
2021/01/20 08:15:58;;;;;;;60.12;29.72;;;;;;;-14.89;75.82;100377.75;1748934;82;22390;-66
2021/01/20 08:18:26;;;;;;;94.60;41.77;;;;;;;-14.74;75.71;100393.80;1766887;80;21156;-68
2021/01/20 08:20:54;;;;;;;56.63;31.10;;;;;;;-14.63;75.32;100387.67;1784835;80;21134;-66
2021/01/20 08:23:50;;;;;;;41.48;24.45;;;;;;;-14.58;75.00;100388.73;1781563;80;21137;-66
2021/01/20 08:26:24;;;;;;;64.25;31.93;;;;;;;-14.55;75.05;100389.03;1783887;80;21094;-65
2021/01/20 08:29:13;;;;;;;69.50;35.13;;;;;;;-14.57;74.93;100386.97;1753251;81;23609;-67
2021/01/20 08:31:41;;;;;;;41.53;23.05;;;;;;;-14.53;75.03;100384.64;1753711;81;21607;-65
2021/01/20 08:34:22;;;;;;;35.80;22.80;;;;;;;-14.38;75.19;100379.98;1756913;81;27558;-65
2021/01/20 08:37:04;;;;;;;39.63;23.85;;;;;;;-14.25;74.99;100379.75;1766948;81;21122;-66
2021/01/20 08:39:37;;;;;;;61.45;29.85;;;;;;;-14.11;74.73;100381.63;1738708;81;21630;-67
2021/01/20 08:42:26;;;;;;;33.13;24.65;;;;;;;-13.99;74.47;100384.42;1738701;82;21205;-65
2021/01/20 08:45:13;;;;;;;60.83;30.55;;;;;;;-13.95;74.03;100379.92;1732492;82;21155;-68
2021/01/20 08:47:56;;;;;;;43.80;25.80;;;;;;;-13.96;73.99;100378.28;1729599;82;21045;-64
2021/01/20 08:50:43;;;;;;;68.45;34.55;;;;;;;-13.84;74.14;100381.50;1738739;82;21026;-66
2021/01/20 08:53:27;;;;;;;80.90;40.77;;;;;;;-13.75;73.79;100379.28;1738735;82;21266;-67
2021/01/20 08:55:56;;;;;;;88.33;39.30;;;;;;;-13.66;73.60;100374.53;1738584;82;21596;-67
2021/01/20 08:58:32;;;;;;;79.00;34.03;;;;;;;-13.58;73.55;100361.61;1720644;82;21567;-66
2021/01/20 09:04:02;;;;;;;58.53;26.90;;;;;;;-13.30;73.04;100359.66;1846948;76;22731;-67
2021/01/20 09:06:30;;;;;;;49.80;25.53;;;;;;;-13.27;73.08;100366.79;1810992;78;20999;-68
2021/01/20 09:08:58;;;;;;;82.00;36.73;;;;;;;-13.17;72.85;100360.66;1812460;79;21266;-68
2021/01/20 09:11:26;;;;;;;69.20;28.03;;;;;;;-13.12;72.77;100358.66;1785402;79;21018;-67
2021/01/20 09:13:54;;;;;;;56.67;25.80;;;;;;;-13.04;72.51;100360.32;1798061;79;21315;-69
2021/01/20 09:16:29;;;;;;;39.03;21.80;;;;;;;-13.02;72.23;100352.48;1806294;79;21275;-67
2021/01/20 09:18:57;;;;;;;51.73;29.93;;;;;;;-13.00;72.23;100356.67;1815106;79;21169;-66
2021/01/20 09:21:25;;;;;;;73.23;36.43;;;;;;;-12.94;72.03;100351.12;1817118;79;21239;-66
2021/01/20 09:23:53;;;;;;;52.57;27.20;;;;;;;-12.80;72.03;100352.14;1803812;78;21225;-71
2021/01/20 09:26:21;;;;;;;34.00;21.80;;;;;;;-12.61;71.64;100357.45;1798888;79;21836;-66
2021/01/20 09:28:49;;;;;;;45.87;23.70;;;;;;;-12.53;70.96;100361.77;1813076;77;21204;-67
2021/01/20 09:31:18;;;;;;;54.57;30.57;;;;;;;-12.60;70.55;100360.88;1788817;79;21352;-68
2021/01/20 09:33:46;;;;;;;53.23;30.73;;;;;;;-12.56;70.78;100364.50;1795363;79;21412;-66
2021/01/20 09:36:14;;;;;;;49.13;25.97;;;;;;;-12.49;70.74;100364.55;1808057;79;21242;-67
2021/01/20 09:38:42;;;;;;;64.70;34.47;;;;;;;-12.35;70.46;100359.86;1816384;79;21296;-68
2021/01/20 09:41:10;;;;;;;68.40;27.00;;;;;;;-12.23;70.57;100357.87;1817016;79;21388;-66
2021/01/20 09:43:39;;;;;;;63.23;32.40;;;;;;;-11.97;70.46;100361.05;1814595;79;21756;-67
2021/01/20 09:46:07;;;;;;;53.67;30.67;;;;;;;-11.79;69.75;100355.67;1795221;79;21334;-67
2021/01/20 09:48:35;;;;;;;49.60;26.17;;;;;;;-11.73;68.89;100361.33;1817127;79;21848;-67
2021/01/20 09:51:03;;;;;;;53.97;27.37;;;;;;;-11.80;68.68;100351.43;1817117;78;21228;-66
2021/01/20 09:53:31;;;;;;;56.87;30.53;;;;;;;-11.83;68.96;100347.70;1812376;78;21322;-66
2021/01/20 09:55:59;;;;;;;50.73;26.37;;;;;;;-11.91;68.76;100352.06;1793035;79;21418;-66
2021/01/20 09:58:27;;;;;;;45.77;25.57;;;;;;;-11.91;69.03;100349.94;1784962;80;21430;-66
2021/01/20 10:00:54;;;;;;;29.57;17.47;;;;;;;-11.87;68.94;100347.52;1784897;80;21254;-66
2021/01/20 10:03:22;;;;;;;50.23;22.07;;;;;;;-11.83;69.15;100347.25;1783207;79;21539;-68
2021/01/20 10:05:50;;;;;;;61.63;30.43;;;;;;;-11.79;69.01;100353.91;1768924;79;21585;-67
2021/01/20 10:08:18;;;;;;;41.40;21.30;;;;;;;-11.69;69.08;100345.91;1759547;81;21627;-66
2021/01/20 10:10:45;;;;;;;30.83;20.27;;;;;;;-11.69;69.08;100345.91;1749657;82;21624;-64
2021/01/20 10:13:13;;;;;;;61.40;32.10;;;;;;;-11.70;69.11;100348.13;1753654;81;22044;-68
2021/01/20 10:15:41;;;;;;;48.77;26.80;;;;;;;-11.70;69.11;100348.13;1731446;82;22303;-66
2021/01/20 10:18:09;;;;;;;62.33;29.60;;;;;;;-11.65;68.97;100344.80;1780052;80;21450;-67
2021/01/20 10:20:36;;;;;;;59.20;29.63;;;;;;;-11.47;69.25;100338.97;1753860;81;21495;-67
2021/01/20 10:23:10;;;;;;;57.77;26.07;;;;;;;-11.33;69.10;100332.45;1749442;80;21506;-67
2021/01/20 10:25:38;;;;;;;64.10;27.65;;;;;;;-11.33;69.10;100332.45;1734716;81;21558;-68
2021/01/20 10:28:05;;;;;;;46.73;21.20;;;;;;;-11.20;68.57;100335.94;1723254;82;21501;-74
2021/01/20 10:30:36;;;;;;;54.27;28.43;;;;;;;-11.21;68.41;100338.16;1777361;80;21592;-66
2021/01/20 10:33:04;;;;;;;53.97;27.40;;;;;;;-11.10;68.22;100325.34;1742338;81;21657;-67
2021/01/20 10:35:31;;;;;;;37.03;21.00;;;;;;;-11.06;68.16;100332.01;1755190;80;21850;-66
2021/01/20 10:37:59;;;;;;;34.93;16.67;;;;;;;-11.06;68.16;100332.01;1744545;81;22342;-68
2021/01/20 10:40:26;;;;;;;53.97;31.20;;;;;;;-11.05;67.99;100328.95;1761385;81;21839;-67
2021/01/20 10:42:54;;;;;;;56.43;29.00;;;;;;;-11.05;67.99;100328.95;1737396;81;21847;-68
2021/01/20 10:45:21;;;;;;;51.13;28.20;;;;;;;-11.04;68.06;100331.92;1762027;80;22073;-66
2021/01/20 10:47:51;;;;;;;62.70;35.13;;;;;;;-11.04;68.17;100335.81;1761057;81;21923;-66
2021/01/20 10:50:19;;;;;;;38.73;19.90;;;;;;;-10.95;68.23;100326.60;1779590;80;21863;-67
2021/01/20 10:52:47;;;;;;;38.70;21.73;;;;;;;-10.86;68.04;100318.22;1761267;81;21652;-65
2021/01/20 10:55:15;;;;;;;40.00;21.43;;;;;;;-10.84;67.93;100320.27;1779904;79;21664;-64
2021/01/20 10:57:43;;;;;;;47.57;27.23;;;;;;;-10.84;67.93;100324.16;1759552;81;22193;-64
2021/01/20 11:00:14;;;;;;;46.27;23.03;;;;;;;-10.86;67.73;100319.05;1780590;80;22247;-64
2021/01/20 11:02:41;;;;;;;50.33;25.73;;;;;;;-10.78;68.05;100315.95;1739360;81;21966;-66
2021/01/20 11:05:11;;;;;;;52.73;25.90;;;;;;;-10.58;68.01;100312.05;1736221;82;21824;-67
2021/01/20 11:07:39;;;;;;;64.07;33.40;;;;;;;-10.45;67.73;100307.23;1709560;84;22382;-67
2021/01/20 11:10:09;;;;;;;56.27;26.43;;;;;;;-10.32;67.60;100308.11;1709792;84;21851;-66
2021/01/20 11:12:36;;;;;;;39.47;16.10;;;;;;;-10.17;67.39;100310.16;1709562;84;22933;-67
2021/01/20 11:15:07;;;;;;;68.50;32.87;;;;;;;-10.05;66.60;100308.44;1709712;84;22310;-65
2021/01/20 11:17:34;;;;;;;39.80;21.63;;;;;;;-9.99;66.70;100313.23;1690376;82;22275;-66
2021/01/20 11:20:02;;;;;;;47.63;28.87;;;;;;;-9.86;66.42;100306.25;1784295;80;21711;-66